Time;durP1;ratioP1;P1;durP2;ratioP2;P2;SDS_P1;SDS_P2;PMS_P1;PMS_P2;Temp;Humidity;BMP_temperature;BMP_pressure;BME280_temperature;BME280_humidity;BME280_pressure;Samples;Min_cycle;Max_cycle;Signal;HPM_P1;HPM_P2
2023/11/25 00:02:14;;;;;;;19.83;2.50;;;7.00;99.90;;;;;;7282005;19;20199;-84
2023/11/25 00:04:40;;;;;;;19.67;2.70;;;6.90;99.90;;;;;;7282288;19;20185;-84
2023/11/25 00:07:06;;;;;;;20.90;2.30;;;6.90;99.90;;;;;;7281908;19;20924;-84
2023/11/25 00:09:32;;;;;;;18.67;2.10;;;6.80;99.90;;;;;;7283903;19;20190;-84
2023/11/25 00:11:58;;;;;;;19.63;2.83;;;6.80;99.90;;;;;;7291370;19;20203;-84
2023/11/25 00:14:24;;;;;;;17.73;2.83;;;6.80;99.90;;;;;;7304353;19;20226;-84
2023/11/25 00:16:50;;;;;;;17.93;2.53;;;6.90;99.90;;;;;;7281737;19;20197;-85
2023/11/25 00:19:17;;;;;;;19.87;2.57;;;6.90;99.90;;;;;;7281402;19;20240;-85
2023/11/25 00:21:42;;;;;;;15.30;2.67;;;6.90;99.90;;;;;;7282149;19;20860;-84
2023/11/25 00:24:08;;;;;;;20.23;3.40;;;7.00;99.90;;;;;;7282411;19;20256;-85
2023/11/25 00:26:34;;;;;;;14.93;1.97;;;7.10;99.90;;;;;;7281448;19;20185;-84
2023/11/25 00:29:00;;;;;;;16.43;3.00;;;7.20;99.90;;;;;;7287823;19;20196;-84
2023/11/25 00:31:26;;;;;;;14.83;2.53;;;7.10;99.90;;;;;;7310616;19;20192;-84
2023/11/25 00:33:52;;;;;;;15.17;2.13;;;7.30;99.90;;;;;;7288796;19;20201;-85
2023/11/25 00:36:18;;;;;;;18.53;1.70;;;7.20;99.90;;;;;;7288756;19;20239;-85
2023/11/25 00:38:44;;;;;;;10.77;1.90;;;7.20;99.90;;;;;;7287712;19;20218;-84
2023/11/25 00:41:09;;;;;;;14.93;2.40;;;7.20;99.90;;;;;;7289071;19;20196;-84
2023/11/25 00:43:36;;;;;;;10.40;1.90;;;7.10;99.90;;;;;;7289306;19;20544;-84
2023/11/25 00:46:02;;;;;;;13.93;2.37;;;7.00;99.90;;;;;;7287641;19;20551;-85
2023/11/25 00:48:31;;;;;;;17.37;2.57;;;7.10;99.90;;;;;;7287476;19;20668;-84
2023/11/25 00:50:57;;;;;;;15.57;2.40;;;7.00;99.90;;;;;;7306387;19;20192;-83
2023/11/25 00:53:23;;;;;;;15.60;2.47;;;6.90;99.90;;;;;;7306058;19;20195;-84
2023/11/25 00:55:49;;;;;;;19.27;2.50;;;7.00;99.90;;;;;;7287843;19;20185;-84
2023/11/25 00:58:15;;;;;;;15.00;1.80;;;7.00;99.90;;;;;;7284688;19;20245;-84
2023/11/25 01:00:40;;;;;;;17.47;2.10;;;7.10;99.90;;;;;;7289083;19;20209;-84
2023/11/25 01:03:06;;;;;;;19.60;2.30;;;7.10;99.90;;;;;;7286505;19;20235;-84
2023/11/25 01:05:32;;;;;;;13.70;1.90;;;7.20;99.90;;;;;;7291006;19;20600;-84
2023/11/25 01:07:58;;;;;;;17.17;2.13;;;7.20;99.90;;;;;;7291685;19;20196;-84
2023/11/25 01:10:26;;;;;;;16.83;1.87;;;7.00;99.90;;;;;;7309131;19;20219;-84
2023/11/25 01:12:52;;;;;;;21.40;2.33;;;7.00;99.90;;;;;;7286833;19;20307;-85
2023/11/25 01:15:19;;;;;;;14.27;1.87;;;7.00;99.90;;;;;;7288429;19;20182;-85
2023/11/25 01:17:45;;;;;;;13.37;1.90;;;7.20;99.90;;;;;;7287776;19;20191;-85
2023/11/25 01:20:13;;;;;;;18.47;2.00;;;7.20;99.90;;;;;;7286702;19;20592;-86
2023/11/25 01:22:39;;;;;;;16.07;1.93;;;7.10;99.90;;;;;;7290276;19;20536;-86
2023/11/25 01:25:06;;;;;;;17.40;1.97;;;7.10;99.90;;;;;;7287225;19;20185;-86
2023/11/25 01:27:33;;;;;;;15.03;1.90;;;7.10;99.90;;;;;;7286069;19;20217;-86
2023/11/25 01:29:59;;;;;;;14.57;2.00;;;7.00;99.90;;;;;;7287987;19;20647;-85
2023/11/25 01:32:25;;;;;;;16.00;2.23;;;7.00;99.90;;;;;;7307462;19;20184;-86
2023/11/25 01:34:51;;;;;;;14.03;1.70;;;6.90;99.90;;;;;;7285308;19;20196;-86
2023/11/25 01:37:17;;;;;;;14.33;1.80;;;6.80;99.90;;;;;;7285084;19;20582;-85
2023/11/25 01:39:43;;;;;;;15.70;1.87;;;6.70;99.90;;;;;;7284575;19;20196;-85
2023/11/25 01:42:09;;;;;;;14.13;1.90;;;6.70;99.90;;;;;;7279282;19;20545;-84
2023/11/25 01:44:35;;;;;;;15.57;2.00;;;6.50;99.90;;;;;;7285466;19;20221;-85
2023/11/25 01:47:01;;;;;;;11.47;1.87;;;6.40;99.90;;;;;;7284057;19;20197;-85
2023/11/25 01:49:27;;;;;;;15.00;1.67;;;6.40;99.90;;;;;;7300311;19;20192;-85
2023/11/25 01:51:55;;;;;;;13.77;1.63;;;6.40;99.90;;;;;;7305716;19;20199;-86
2023/11/25 01:54:23;;;;;;;16.00;1.70;;;6.40;99.90;;;;;;7285355;19;20190;-86
2023/11/25 01:56:55;;;;;;;14.73;1.93;;;6.40;99.90;;;;;;7283822;19;20184;-86
2023/11/25 01:59:25;;;;;;;12.27;1.60;;;6.40;99.90;;;;;;7285943;19;20192;-85
2023/11/25 02:01:51;;;;;;;14.07;2.10;;;6.30;99.90;;;;;;7284719;19;20216;-85
2023/11/25 02:04:17;;;;;;;10.87;1.60;;;6.30;99.90;;;;;;7285452;19;20244;-86
2023/11/25 02:06:43;;;;;;;12.77;1.50;;;6.30;99.90;;;;;;7284325;19;20193;-85
2023/11/25 02:09:08;;;;;;;15.27;1.83;;;6.40;99.90;;;;;;7285798;19;20234;-85
2023/11/25 02:11:54;;;;;;;12.57;1.73;;;6.50;99.90;;;;;;7284713;19;20553;-85
2023/11/25 02:14:20;;;;;;;8.40;1.30;;;6.60;99.90;;;;;;7285534;19;20676;-85
2023/11/25 02:16:46;;;;;;;15.77;2.40;;;6.60;99.90;;;;;;7284437;19;20188;-85
2023/11/25 02:19:12;;;;;;;12.87;1.70;;;6.70;99.90;;;;;;7284949;19;20193;-85
2023/11/25 02:21:42;;;;;;;13.50;1.80;;;6.70;99.90;;;;;;7285713;19;20197;-85
2023/11/25 02:24:08;;;;;;;16.70;1.80;;;6.70;99.90;;;;;;7285025;19;20212;-85
2023/11/25 02:26:34;;;;;;;11.53;1.90;;;6.60;99.90;;;;;;7285267;19;20761;-85
2023/11/25 02:29:00;;;;;;;14.43;2.30;;;6.60;99.90;;;;;;7284955;19;20198;-84
2023/11/25 02:31:26;;;;;;;13.57;2.07;;;6.60;99.90;;;;;;7310657;19;20196;-85
2023/11/25 02:33:52;;;;;;;28.90;2.73;;;6.60;99.90;;;;;;7288256;19;20612;-86
2023/11/25 02:36:17;;;;;;;18.03;2.20;;;6.60;99.90;;;;;;7280636;19;20185;-85
2023/11/25 02:38:43;;;;;;;11.47;1.67;;;6.60;99.90;;;;;;7285030;19;20193;-85
2023/11/25 02:41:10;;;;;;;16.93;2.10;;;6.70;99.90;;;;;;7284371;19;20277;-85
2023/11/25 02:43:36;;;;;;;19.20;2.33;;;6.80;99.90;;;;;;7285198;19;20185;-86
2023/11/25 02:46:03;;;;;;;13.77;2.20;;;6.90;99.90;;;;;;7283862;19;20193;-85
2023/11/25 02:48:29;;;;;;;17.47;2.27;;;6.90;99.90;;;;;;7282944;19;20189;-85
2023/11/25 02:50:55;;;;;;;12.40;1.80;;;7.00;99.90;;;;;;7304816;19;20217;-86
2023/11/25 02:53:21;;;;;;;11.10;1.80;;;7.00;99.90;;;;;;7283907;19;20188;-85
2023/11/25 02:55:47;;;;;;;13.17;2.07;;;7.10;99.90;;;;;;7284999;19;20194;-86
2023/11/25 02:58:13;;;;;;;13.40;1.70;;;7.10;99.90;;;;;;7285361;19;20197;-85
2023/11/25 03:00:43;;;;;;;15.13;2.37;;;7.10;99.90;;;;;;7284802;19;20188;-86
2023/11/25 03:03:13;;;;;;;16.07;1.90;;;7.00;99.90;;;;;;7285523;19;20199;-85
2023/11/25 03:05:49;;;;;;;13.97;2.17;;;7.10;99.90;;;;;;7283472;19;20248;-85
2023/11/25 03:08:17;;;;;;;15.20;1.93;;;7.00;99.90;;;;;;7284743;19;20227;-85
2023/11/25 03:10:43;;;;;;;15.90;2.00;;;7.00;99.90;;;;;;7284360;19;20659;-85
2023/11/25 03:13:12;;;;;;;15.70;1.90;;;6.90;99.90;;;;;;7283667;19;20209;-85
2023/11/25 03:15:39;;;;;;;17.07;2.10;;;6.90;99.90;;;;;;7284899;19;20177;-86
2023/11/25 03:18:05;;;;;;;17.93;2.00;;;6.90;99.90;;;;;;7283013;19;20184;-86
2023/11/25 03:20:35;;;;;;;18.37;1.80;;;6.80;99.90;;;;;;7282942;19;20216;-85
2023/11/25 03:23:03;;;;;;;15.40;1.70;;;6.70;99.90;;;;;;7284059;19;20295;-85
2023/11/25 03:25:30;;;;;;;16.87;2.00;;;6.60;99.90;;;;;;7285806;19;20634;-85
2023/11/25 03:28:04;;;;;;;14.10;2.00;;;6.70;99.90;;;;;;7307645;19;20190;-85
2023/11/25 03:30:30;;;;;;;18.93;2.57;;;6.60;99.90;;;;;;7264620;19;20190;-85
2023/11/25 03:32:56;;;;;;;21.47;2.20;;;6.50;99.90;;;;;;7305740;19;20179;-85
2023/11/25 03:35:23;;;;;;;17.17;2.40;;;6.40;99.90;;;;;;7285740;19;20184;-85
2023/11/25 03:37:48;;;;;;;16.20;2.17;;;6.40;99.90;;;;;;7283827;19;20211;-85
2023/11/25 03:40:15;;;;;;;18.43;2.43;;;6.40;99.90;;;;;;7283760;19;20191;-86
2023/11/25 03:42:44;;;;;;;15.77;2.30;;;6.50;99.90;;;;;;7285804;19;20228;-85
2023/11/25 03:45:12;;;;;;;16.97;2.17;;;6.60;99.90;;;;;;7282523;19;20200;-86
2023/11/25 03:47:43;;;;;;;16.30;2.30;;;6.70;99.90;;;;;;7285110;19;20189;-85
2023/11/25 03:50:11;;;;;;;19.53;2.10;;;6.80;99.90;;;;;;7283054;19;20217;-86
2023/11/25 03:52:40;;;;;;;27.00;3.07;;;6.90;99.90;;;;;;7284361;19;20658;-85
2023/11/25 03:55:09;;;;;;;17.93;2.53;;;7.00;99.90;;;;;;7284514;19;20285;-85
2023/11/25 03:57:37;;;;;;;15.97;2.43;;;7.10;99.90;;;;;;7283437;19;20185;-86
2023/11/25 04:00:14;;;;;;;15.93;2.10;;;7.20;99.90;;;;;;7283276;19;20202;-85
2023/11/25 04:02:41;;;;;;;17.27;2.20;;;7.00;99.90;;;;;;7285082;19;20233;-85
2023/11/25 04:05:07;;;;;;;20.73;2.00;;;7.00;99.90;;;;;;7289467;19;20562;-85
2023/11/25 04:07:33;;;;;;;17.83;2.30;;;6.90;99.90;;;;;;7289972;19;20236;-85
2023/11/25 04:09:59;;;;;;;19.37;2.10;;;6.80;99.90;;;;;;7292911;19;20521;-85
2023/11/25 04:12:24;;;;;;;15.60;2.00;;;6.70;99.90;;;;;;7312058;19;20195;-85
2023/11/25 04:14:50;;;;;;;14.33;2.10;;;6.70;99.90;;;;;;7290242;19;20631;-86
2023/11/25 04:17:16;;;;;;;18.43;1.83;;;6.50;99.90;;;;;;7289407;19;20200;-86
2023/11/25 04:19:42;;;;;;;17.30;1.80;;;6.50;99.90;;;;;;7288677;19;20185;-86
2023/11/25 04:22:08;;;;;;;15.87;1.90;;;6.50;99.90;;;;;;7287650;19;20196;-85
2023/11/25 04:24:33;;;;;;;17.73;2.30;;;6.60;99.90;;;;;;7289767;19;20209;-85
2023/11/25 04:26:59;;;;;;;18.03;2.47;;;6.50;99.90;;;;;;7289584;19;20206;-85
2023/11/25 04:29:25;;;;;;;15.57;1.80;;;6.70;99.90;;;;;;7311484;19;20687;-85
2023/11/25 04:31:51;;;;;;;15.13;1.97;;;6.80;99.90;;;;;;7287765;19;20220;-84
2023/11/25 04:34:16;;;;;;;16.03;2.30;;;6.90;99.90;;;;;;7288324;19;20198;-85
2023/11/25 04:36:43;;;;;;;18.50;2.47;;;7.00;99.90;;;;;;7290105;19;20196;-84
2023/11/25 04:39:10;;;;;;;22.37;2.20;;;7.00;99.90;;;;;;7288289;19;20195;-85
2023/11/25 04:41:40;;;;;;;19.53;2.30;;;6.90;99.90;;;;;;7285931;19;20563;-85
2023/11/25 04:44:06;;;;;;;14.63;1.70;;;6.90;99.90;;;;;;7283601;19;20675;-86
2023/11/25 04:46:32;;;;;;;13.50;2.23;;;6.90;99.90;;;;;;7287548;19;20217;-85
2023/11/25 04:48:58;;;;;;;17.03;1.97;;;6.90;99.90;;;;;;7301650;19;20192;-84
2023/11/25 04:51:23;;;;;;;17.50;2.20;;;6.90;99.90;;;;;;7304594;19;20191;-85
2023/11/25 04:53:49;;;;;;;16.60;2.17;;;6.80;99.90;;;;;;7288886;19;20188;-85
2023/11/25 04:56:15;;;;;;;17.30;2.50;;;6.80;99.90;;;;;;7289690;19;20188;-84
2023/11/25 04:58:41;;;;;;;22.47;2.37;;;6.80;99.90;;;;;;7286427;19;20668;-85
2023/11/25 05:01:07;;;;;;;14.47;2.10;;;6.80;99.90;;;;;;7288140;19;20191;-83
2023/11/25 05:03:33;;;;;;;17.17;2.30;;;6.70;99.90;;;;;;7287362;19;20225;-85
2023/11/25 05:06:02;;;;;;;19.57;2.20;;;6.60;99.90;;;;;;7290338;19;20188;-85
2023/11/25 05:08:28;;;;;;;16.47;2.07;;;6.60;99.90;;;;;;7300849;19;20623;-85
2023/11/25 05:10:54;;;;;;;19.97;2.23;;;6.50;99.90;;;;;;7309546;19;20234;-85
2023/11/25 05:13:21;;;;;;;16.33;2.30;;;6.50;99.90;;;;;;7288231;19;20194;-85
2023/11/25 05:15:47;;;;;;;23.73;2.40;;;6.50;99.90;;;;;;7285303;19;20186;-85
2023/11/25 05:18:13;;;;;;;17.83;2.33;;;6.40;99.90;;;;;;7287303;19;20199;-85
2023/11/25 05:20:39;;;;;;;13.13;2.67;;;6.40;99.90;;;;;;7286903;19;20185;-85
2023/11/25 05:23:04;;;;;;;17.97;2.47;;;6.30;99.90;;;;;;7288993;19;20188;-85
2023/11/25 05:25:30;;;;;;;19.03;2.43;;;6.30;99.90;;;;;;7286964;19;20255;-84
2023/11/25 05:27:56;;;;;;;20.63;2.60;;;6.30;99.90;;;;;;7312070;19;20188;-86
2023/11/25 05:30:23;;;;;;;20.57;2.30;;;6.40;99.90;;;;;;7289084;19;20180;-82
2023/11/25 05:32:48;;;;;;;17.57;2.73;;;6.50;99.90;;;;;;7284524;19;20601;-85
2023/11/25 05:35:14;;;;;;;14.60;1.97;;;6.50;99.90;;;;;;7286857;19;20195;-86
2023/11/25 05:37:43;;;;;;;17.53;2.30;;;6.50;99.90;;;;;;7287463;19;20213;-85
2023/11/25 05:40:11;;;;;;;14.23;2.40;;;6.60;99.90;;;;;;7286516;19;20193;-86
2023/11/25 05:42:41;;;;;;;18.47;2.43;;;6.60;99.90;;;;;;7286933;19;20193;-86
2023/11/25 05:45:11;;;;;;;16.97;2.80;;;6.80;99.90;;;;;;7286641;19;20208;-85
2023/11/25 05:47:37;;;;;;;13.90;2.03;;;6.80;99.90;;;;;;7286342;19;20184;-85
2023/11/25 05:50:04;;;;;;;21.83;2.20;;;6.90;99.90;;;;;;7287730;19;20676;-85
2023/11/25 05:52:30;;;;;;;16.60;2.20;;;6.90;99.90;;;;;;7285980;19;20195;-85
2023/11/25 05:54:55;;;;;;;21.43;2.30;;;6.90;99.90;;;;;;7309584;19;20555;-85
2023/11/25 05:57:22;;;;;;;20.37;2.60;;;6.80;99.90;;;;;;7287719;19;20290;-85
2023/11/25 05:59:48;;;;;;;18.17;2.10;;;6.90;99.90;;;;;;7284920;19;20201;-84
2023/11/25 06:02:13;;;;;;;17.33;2.77;;;6.90;99.90;;;;;;7287294;19;20200;-85
2023/11/25 06:04:40;;;;;;;11.70;2.13;;;6.90;99.90;;;;;;7286857;19;20196;-85
2023/11/25 06:07:06;;;;;;;17.43;2.23;;;7.00;99.90;;;;;;7286030;19;20660;-85
2023/11/25 06:09:31;;;;;;;17.83;2.70;;;6.90;99.90;;;;;;7287201;19;20200;-85
2023/11/25 06:11:57;;;;;;;17.40;2.47;;;6.90;99.90;;;;;;7306081;19;20181;-82
2023/11/25 06:14:24;;;;;;;23.00;2.23;;;6.90;99.90;;;;;;7295987;19;20619;-85
2023/11/25 06:16:53;;;;;;;15.90;2.20;;;6.90;99.90;;;;;;7286080;19;20203;-85
2023/11/25 06:19:20;;;;;;;21.83;2.80;;;6.80;99.90;;;;;;7286335;19;20177;-87
2023/11/25 06:21:47;;;;;;;14.40;1.90;;;6.90;99.90;;;;;;7287049;19;20194;-84
2023/11/25 06:24:16;;;;;;;15.57;2.50;;;6.90;99.90;;;;;;7286227;19;20188;-85
2023/11/25 06:26:44;;;;;;;15.57;2.00;;;6.90;99.90;;;;;;7285036;19;20223;-86
2023/11/25 06:29:09;;;;;;;14.63;2.00;;;6.90;99.90;;;;;;7285500;19;20528;-83
2023/11/25 06:31:36;;;;;;;16.93;2.43;;;6.90;99.90;;;;;;7285475;19;20195;-84
2023/11/25 06:34:03;;;;;;;22.27;2.80;;;6.80;99.90;;;;;;7284530;19;20248;-83
2023/11/25 06:36:29;;;;;;;15.90;2.70;;;6.70;99.90;;;;;;7298353;19;20188;-81
2023/11/25 06:38:54;;;;;;;15.27;2.20;;;6.50;99.90;;;;;;7297380;19;20208;-84
2023/11/25 06:41:24;;;;;;;20.93;2.33;;;6.50;99.90;;;;;;7285652;19;20226;-84
2023/11/25 06:43:50;;;;;;;21.37;3.13;;;6.40;99.90;;;;;;7282793;19;20388;-83
2023/11/25 06:46:16;;;;;;;17.83;2.10;;;6.40;99.90;;;;;;7284451;19;20216;-84
2023/11/25 06:48:42;;;;;;;20.30;3.30;;;6.50;99.90;;;;;;7285825;19;20195;-83
2023/11/25 06:51:11;;;;;;;16.83;2.10;;;6.60;99.90;;;;;;7285945;19;20700;-84
2023/11/25 06:53:39;;;;;;;17.10;2.10;;;6.80;99.90;;;;;;7283636;19;20271;-83
2023/11/25 06:56:09;;;;;;;14.70;2.63;;;6.80;99.90;;;;;;7284963;19;20656;-83
2023/11/25 06:58:38;;;;;;;17.43;2.77;;;6.80;99.90;;;;;;7284676;19;20704;-84
2023/11/25 07:01:04;;;;;;;15.23;1.80;;;6.70;99.90;;;;;;7283625;19;20196;-83
2023/11/25 07:03:30;;;;;;;18.17;2.33;;;6.70;99.90;;;;;;7282841;19;20296;-81
2023/11/25 07:05:59;;;;;;;7.80;1.63;;;6.80;99.90;;;;;;7306534;19;20222;-82
2023/11/25 07:08:42;;;;;;;19.63;2.73;;;6.80;99.90;;;;;;7181476;19;2004671;-82
2023/11/25 07:11:10;;;;;;;13.30;1.90;;;6.80;99.90;;;;;;7282293;19;20197;-82
2023/11/25 07:13:35;;;;;;;13.20;2.10;;;6.80;99.90;;;;;;7284248;19;20189;-83
2023/11/25 07:16:03;;;;;;;9.93;1.80;;;6.90;99.90;;;;;;7284302;19;20205;-83
2023/11/25 07:18:28;;;;;;;22.03;2.17;;;7.10;99.90;;;;;;7289562;19;20252;-82
2023/11/25 07:20:56;;;;;;;10.27;1.37;;;7.20;99.90;;;;;;7304088;19;20613;-83
2023/11/25 07:23:22;;;;;;;14.67;1.70;;;7.20;99.90;;;;;;7284467;19;20188;-83
2023/11/25 07:25:48;;;;;;;14.47;2.23;;;7.10;99.90;;;;;;7282714;19;20671;-83
2023/11/25 07:28:15;;;;;;;13.47;1.60;;;7.10;99.90;;;;;;7284295;19;20254;-83
2023/11/25 07:30:41;;;;;;;13.90;2.07;;;7.10;99.90;;;;;;7281401;19;20193;-83
2023/11/25 07:33:08;;;;;;;14.23;2.33;;;7.10;99.90;;;;;;7279362;19;20196;-83
2023/11/25 07:35:34;;;;;;;19.07;2.50;;;7.10;99.90;;;;;;7279714;19;20200;-82
2023/11/25 07:38:01;;;;;;;14.73;1.90;;;7.10;99.90;;;;;;7289060;19;20186;-83
2023/11/25 07:40:28;;;;;;;15.47;2.47;;;7.20;99.90;;;;;;7312753;19;20188;-81
2023/11/25 07:42:54;;;;;;;15.27;2.67;;;7.30;99.90;;;;;;7311513;19;20635;-82
2023/11/25 07:45:20;;;;;;;22.27;2.60;;;7.30;99.90;;;;;;7295650;19;20211;-83
2023/11/25 07:47:45;;;;;;;16.90;2.47;;;7.30;99.90;;;;;;7297448;19;20663;-84
2023/11/25 07:50:12;;;;;;;18.83;2.33;;;7.40;99.90;;;;;;7297716;19;20285;-84
2023/11/25 07:52:38;;;;;;;16.20;2.20;;;7.40;99.90;;;;;;7294422;19;20181;-84
2023/11/25 07:55:05;;;;;;;15.53;2.10;;;7.40;99.90;;;;;;7298922;19;20195;-84
2023/11/25 07:57:32;;;;;;;15.40;2.43;;;7.30;99.90;;;;;;7296168;19;20641;-84
2023/11/25 07:59:57;;;;;;;18.37;2.90;;;7.40;99.90;;;;;;7318032;19;20234;-84
2023/11/25 08:02:24;;;;;;;15.33;2.10;;;7.50;99.90;;;;;;7297695;19;20184;-85
2023/11/25 08:04:50;;;;;;;15.37;2.27;;;7.50;99.90;;;;;;7297251;19;20216;-85
2023/11/25 08:07:16;;;;;;;11.77;1.97;;;7.30;99.90;;;;;;7297737;19;20189;-85
2023/11/25 08:09:43;;;;;;;15.83;1.97;;;7.20;99.90;;;;;;7296575;19;20181;-84
2023/11/25 08:12:09;;;;;;;20.87;2.10;;;7.30;99.90;;;;;;7297654;19;20303;-85
2023/11/25 08:14:38;;;;;;;11.30;1.87;;;7.30;99.90;;;;;;7298023;19;20200;-84
2023/11/25 08:17:04;;;;;;;13.23;1.93;;;7.40;99.90;;;;;;7297261;19;20204;-84
2023/11/25 08:19:30;;;;;;;17.50;2.37;;;7.40;99.90;;;;;;7295274;19;20217;-84
2023/11/25 08:21:56;;;;;;;15.50;2.63;;;7.50;99.90;;;;;;7319113;19;20191;-85
2023/11/25 08:24:23;;;;;;;14.43;2.10;;;7.60;99.90;;;;;;7297760;19;20682;-84
2023/11/25 08:26:50;;;;;;;11.73;1.80;;;7.60;99.90;;;;;;7296757;19;20181;-84
2023/11/25 08:29:17;;;;;;;12.50;1.90;;;7.70;99.90;;;;;;7296642;19;20220;-85
2023/11/25 08:31:43;;;;;;;10.80;1.50;;;7.70;99.90;;;;;;7296907;19;20213;-85
2023/11/25 08:34:09;;;;;;;9.30;1.50;;;7.70;99.90;;;;;;7297329;19;20193;-85
2023/11/25 08:36:52;;;;;;;8.07;1.47;;;7.70;99.90;;;;;;7296454;19;20189;-85
2023/11/25 08:39:20;;;;;;;8.50;1.97;;;7.70;99.90;;;;;;7295102;19;20716;-84
2023/11/25 08:41:47;;;;;;;10.73;1.90;;;7.80;99.90;;;;;;7295920;19;20887;-84
2023/11/25 08:44:13;;;;;;;13.80;2.13;;;7.80;99.90;;;;;;7294541;19;20202;-85
2023/11/25 08:46:40;;;;;;;7.90;1.70;;;7.80;99.90;;;;;;7296859;19;20514;-86
2023/11/25 08:49:10;;;;;;;8.60;1.30;;;7.80;99.90;;;;;;7293253;19;20199;-85
2023/11/25 08:51:39;;;;;;;8.53;1.30;;;7.80;99.90;;;;;;7289309;19;20541;-85
2023/11/25 08:54:05;;;;;;;8.93;1.20;;;7.80;99.90;;;;;;7289858;19;20299;-85
2023/11/25 08:56:32;;;;;;;6.80;1.40;;;7.70;99.90;;;;;;7289614;19;20214;-85
2023/11/25 08:59:01;;;;;;;5.67;1.10;;;7.70;99.90;;;;;;7309944;19;20212;-85
2023/11/25 09:01:42;;;;;;;6.03;1.10;;;7.80;99.90;;;;;;7286819;19;20723;-86
2023/11/25 09:04:13;;;;;;;7.67;1.17;;;8.00;99.90;;;;;;7186484;19;2004570;-85
2023/11/25 09:06:39;;;;;;;10.77;2.67;;;8.20;99.90;;;;;;7288868;19;20203;-86
2023/11/25 09:09:09;;;;;;;10.10;1.60;;;8.40;99.90;;;;;;7286950;19;20185;-85
2023/11/25 09:11:36;;;;;;;8.30;4.07;;;8.50;99.90;;;;;;7288672;19;20641;-85
2023/11/25 09:14:06;;;;;;;9.93;4.13;;;8.40;99.90;;;;;;7286723;19;20754;-87
2023/11/25 09:16:32;;;;;;;9.27;4.10;;;8.50;99.90;;;;;;7288647;19;20185;-85
2023/11/25 09:18:58;;;;;;;12.47;5.40;;;8.40;99.90;;;;;;7309869;19;20264;-84
2023/11/25 09:21:24;;;;;;;15.07;5.93;;;8.40;99.90;;;;;;7289486;19;20192;-86
2023/11/25 09:23:50;;;;;;;11.47;3.80;;;8.40;99.90;;;;;;7288742;19;20212;-84
2023/11/25 09:26:16;;;;;;;9.67;2.93;;;8.50;99.90;;;;;;7286670;19;20189;-83
2023/11/25 09:28:42;;;;;;;10.40;2.27;;;8.50;99.90;;;;;;7288105;19;20248;-86
2023/11/25 09:31:08;;;;;;;8.47;1.90;;;8.60;99.90;;;;;;7287685;19;20185;-85
2023/11/25 09:33:33;;;;;;;9.77;2.97;;;8.60;99.90;;;;;;7287166;19;20209;-86
2023/11/25 09:35:59;;;;;;;14.30;3.53;;;8.60;99.90;;;;;;7292211;19;20200;-86
2023/11/25 09:38:25;;;;;;;12.43;3.90;;;8.70;99.90;;;;;;7306443;19;20204;-86
2023/11/25 09:40:51;;;;;;;8.67;2.70;;;8.60;99.90;;;;;;7285808;19;20386;-86
2023/11/25 09:43:18;;;;;;;6.67;1.90;;;8.70;99.90;;;;;;7283941;19;20193;-86
2023/11/25 09:45:45;;;;;;;10.13;2.13;;;8.70;99.90;;;;;;7287474;19;20680;-86
2023/11/25 09:48:11;;;;;;;12.37;1.43;;;8.70;99.90;;;;;;7286128;19;20196;-85
2023/11/25 09:50:37;;;;;;;13.17;3.50;;;8.70;99.90;;;;;;7288651;19;20640;-86
2023/11/25 09:53:32;;;;;;;5.30;2.70;;;9.00;99.90;;;;;;7285952;19;20662;-85
2023/11/25 09:56:04;;;;;;;6.90;1.27;;;9.10;99.90;;;;;;7287986;19;20205;-85
2023/11/25 09:58:33;;;;;;;9.83;2.50;;;9.00;99.90;;;;;;7268727;19;20195;-86
2023/11/25 10:00:59;;;;;;;8.73;2.70;;;8.90;99.90;;;;;;7293715;19;20221;-87
2023/11/25 10:03:32;;;;;;;9.27;2.70;;;8.70;99.90;;;;;;7309317;19;20588;-86
2023/11/25 10:05:57;;;;;;;11.73;3.50;;;8.70;99.90;;;;;;7284748;19;20539;-87
2023/11/25 10:08:23;;;;;;;10.03;2.53;;;8.70;99.90;;;;;;7283052;19;20191;-88
2023/11/25 10:11:07;;;;;;;7.83;2.10;;;8.70;99.90;;;;;;7285453;19;20178;-88
2023/11/25 10:13:38;;;;;;;11.30;3.07;;;8.60;99.90;;;;;;7169460;19;2004620;-87
2023/11/25 10:16:06;;;;;;;9.00;2.50;;;8.50;99.90;;;;;;7283705;19;20208;-84
2023/11/25 10:18:34;;;;;;;10.13;2.80;;;8.40;99.90;;;;;;7282684;19;20266;-86
2023/11/25 10:21:00;;;;;;;7.43;2.30;;;8.40;99.90;;;;;;7283321;19;20204;-87
2023/11/25 10:23:27;;;;;;;8.13;1.73;;;8.50;99.90;;;;;;7303055;19;20975;-85
2023/11/25 10:25:53;;;;;;;7.57;1.30;;;8.70;99.90;;;;;;7377246;19;20189;-83
2023/11/25 10:28:25;;;;;;;6.43;1.63;;;9.40;99.90;;;;;;7281108;19;20199;-83
2023/11/25 10:30:56;;;;;;;3.73;1.30;;;9.60;99.90;;;;;;7277359;19;20660;-81
2023/11/25 10:33:27;;;;;;;7.33;1.70;;;9.50;99.90;;;;;;7278331;19;20587;-80
2023/11/25 10:35:54;;;;;;;7.30;1.33;;;9.40;99.90;;;;;;7275498;19;20698;-80
2023/11/25 10:38:27;;;;;;;6.73;1.00;;;9.20;99.90;;;;;;7277052;19;20182;-79
2023/11/25 10:40:59;;;;;;;7.77;1.30;;;8.90;99.90;;;;;;7278617;19;20825;-80
2023/11/25 10:43:32;;;;;;;11.33;2.60;;;8.80;99.90;;;;;;7277866;19;20187;-80
2023/11/25 10:46:05;;;;;;;8.20;2.13;;;8.70;99.90;;;;;;7279783;19;20195;-80
2023/11/25 10:48:32;;;;;;;7.73;1.50;;;8.40;99.90;;;;;;7254755;19;20200;-81
2023/11/25 10:50:58;;;;;;;10.63;2.00;;;8.30;99.90;;;;;;7299536;19;20220;-82
2023/11/25 10:53:30;;;;;;;5.77;1.60;;;8.20;99.90;;;;;;7279410;19;20272;-82
2023/11/25 10:56:01;;;;;;;6.07;1.80;;;8.30;99.90;;;;;;7278580;19;20312;-83
2023/11/25 10:58:29;;;;;;;8.27;1.37;;;8.40;99.90;;;;;;7279051;19;20328;-80
2023/11/25 11:00:56;;;;;;;6.20;0.90;;;8.40;99.90;;;;;;7279340;19;20192;-79
2023/11/25 11:03:35;;;;;;;5.83;1.00;;;8.40;99.90;;;;;;7275922;19;20185;-79
2023/11/25 11:06:04;;;;;;;3.70;1.20;;;8.50;99.90;;;;;;7255679;19;20183;-77
2023/11/25 11:08:36;;;;;;;6.87;1.93;;;8.70;99.90;;;;;;7281593;19;20185;-78
2023/11/25 11:11:15;;;;;;;4.27;1.47;;;8.80;99.90;;;;;;7280087;19;20191;-78
2023/11/25 11:13:52;;;;;;;7.67;1.87;;;8.80;99.90;;;;;;7274658;19;20189;-78
2023/11/25 11:16:35;;;;;;;4.60;1.17;;;8.90;99.90;;;;;;7278817;19;21370;-78
2023/11/25 11:19:02;;;;;;;2.57;0.70;;;9.20;99.90;;;;;;7256509;19;20197;-77
2023/11/25 11:21:34;;;;;;;2.97;0.90;;;9.20;99.90;;;;;;7301619;19;20536;-77
2023/11/25 11:24:01;;;;;;;5.83;1.00;;;9.30;99.90;;;;;;7263182;19;20199;-78
2023/11/25 11:26:35;;;;;;;5.90;1.37;;;9.30;99.90;;;;;;7300910;19;20185;-77
2023/11/25 11:29:22;;;;;;;3.13;0.90;;;9.50;99.90;;;;;;7257631;19;20272;-77
2023/11/25 11:32:04;;;;;;;4.80;1.13;;;10.00;99.90;;;;;;7278873;19;20192;-78
2023/11/25 11:34:35;;;;;;;5.90;1.20;;;10.40;99.90;;;;;;7262057;19;20187;-78
2023/11/25 11:37:02;;;;;;;16.67;5.73;;;10.70;99.90;;;;;;7279788;19;20186;-78
2023/11/25 11:39:32;;;;;;;9.57;2.37;;;10.60;99.90;;;;;;7303874;19;20676;-80
2023/11/25 11:42:25;;;;;;;5.97;1.13;;;10.10;99.90;;;;;;7283557;19;20197;-79
2023/11/25 11:45:18;;;;;;;6.87;1.53;;;9.50;99.90;;;;;;7179413;19;2004938;-78
2023/11/25 11:48:04;;;;;;;8.93;2.10;;;9.30;99.90;;;;;;7181142;19;2004607;-78
2023/11/25 11:50:31;;;;;;;4.67;0.90;;;9.10;99.90;;;;;;7269166;19;20551;-78
2023/11/25 11:53:00;;;;;;;4.63;1.20;;;9.10;99.90;;;;;;7303437;19;20188;-78
2023/11/25 11:55:35;;;;;;;6.43;1.73;;;9.10;99.90;;;;;;7284523;19;20252;-80
2023/11/25 11:58:05;;;;;;;7.17;1.70;;;9.50;99.90;;;;;;7260030;19;20196;-79
2023/11/25 12:00:39;;;;;;;8.53;1.83;;;10.00;99.90;;;;;;7281511;19;20199;-78
2023/11/25 12:03:08;;;;;;;9.30;1.23;;;10.10;99.90;;;;;;7282264;19;20617;-80
2023/11/25 12:05:35;;;;;;;5.43;1.40;;;10.10;99.90;;;;;;7282605;19;20196;-80
2023/11/25 12:08:01;;;;;;;6.53;1.60;;;9.90;99.90;;;;;;7280689;19;20189;-80
2023/11/25 12:10:27;;;;;;;7.80;1.90;;;9.70;99.90;;;;;;7301767;19;20215;-81
2023/11/25 12:12:53;;;;;;;7.00;1.30;;;9.70;99.90;;;;;;7281556;19;20190;-81
2023/11/25 12:15:20;;;;;;;7.47;1.67;;;10.10;99.90;;;;;;7282911;19;20709;-80
2023/11/25 12:17:46;;;;;;;7.03;1.40;;;10.90;99.90;;;;;;7280203;19;20187;-78
2023/11/25 12:20:15;;;;;;;5.27;1.20;;;11.50;99.90;;;;;;7279348;19;20189;-78
2023/11/25 12:22:42;;;;;;;7.73;1.50;;;12.10;99.90;;;;;;7281298;19;20196;-78
2023/11/25 12:25:17;;;;;;;7.17;1.40;;;12.60;99.90;;;;;;7286079;19;20590;-78
2023/11/25 12:28:06;;;;;;;7.43;1.30;;;12.70;99.90;;;;;;7287261;19;20607;-78
2023/11/25 12:30:35;;;;;;;7.07;1.60;;;13.00;99.90;;;;;;7264527;19;20215;-78
2023/11/25 12:33:01;;;;;;;9.57;1.53;;;13.30;99.90;;;;;;7287946;19;20180;-78
2023/11/25 12:35:27;;;;;;;7.83;1.60;;;13.40;99.90;;;;;;7309097;19;20193;-78
2023/11/25 12:37:54;;;;;;;12.53;3.30;;;13.50;99.90;;;;;;7285883;19;20185;-78
2023/11/25 12:40:24;;;;;;;12.20;2.60;;;13.40;99.90;;;;;;7286524;19;21009;-78
2023/11/25 12:42:53;;;;;;;11.63;2.73;;;12.80;99.90;;;;;;7286376;19;20182;-78
2023/11/25 12:45:40;;;;;;;13.40;3.50;;;12.30;99.90;;;;;;7282979;19;20217;-78
2023/11/25 12:48:06;;;;;;;15.93;4.20;;;11.90;99.90;;;;;;7184094;19;2004629;-78
2023/11/25 12:51:06;;;;;;;14.40;2.97;;;11.50;99.90;;;;;;7287164;19;20738;-78
2023/11/25 12:53:34;;;;;;;12.47;2.27;;;11.00;99.90;;;;;;7263947;19;20219;-78